createdAt,value
2023-05-19T00:01:48.043Z,49.20
2023-05-19T00:04:20.483Z,48.90
2023-05-19T00:06:50.710Z,49.50
2023-05-19T00:09:17.718Z,49.00
2023-05-19T00:11:44.535Z,48.80
2023-05-19T00:14:11.509Z,49.20
2023-05-19T00:16:39.067Z,49.50
2023-05-19T00:19:11.140Z,49.50
2023-05-19T00:21:38.837Z,49.70
2023-05-19T00:24:06.247Z,49.80
2023-05-19T00:26:40.469Z,49.90
2023-05-19T00:29:07.532Z,50.10
2023-05-19T00:31:37.049Z,50.20
2023-05-19T00:34:28.777Z,50.30
2023-05-19T00:36:58.207Z,50.30
2023-05-19T00:39:34.533Z,50.30
2023-05-19T00:42:07.768Z,50.40
2023-05-19T00:44:39.852Z,50.40
2023-05-19T00:47:07.015Z,50.70
2023-05-19T00:49:33.889Z,50.70
2023-05-19T00:52:01.807Z,50.80
2023-05-19T00:54:33.273Z,50.90
2023-05-19T00:57:00.507Z,51.00
2023-05-19T00:59:29.310Z,51.00
2023-05-19T01:02:00.574Z,51.20
2023-05-19T01:04:27.276Z,51.30
2023-05-19T01:06:56.469Z,51.30
2023-05-19T01:09:23.680Z,51.30
2023-05-19T01:11:51.890Z,51.50
2023-05-19T01:14:20.432Z,51.50
2023-05-19T01:16:58.240Z,51.60
2023-05-19T01:19:53.871Z,52.00
2023-05-19T01:22:32.403Z,52.60
2023-05-19T01:25:21.689Z,52.20
2023-05-19T01:28:10.187Z,51.80
2023-05-19T01:30:41.643Z,52.60
2023-05-19T01:33:16.134Z,52.10
2023-05-19T01:35:47.320Z,52.00
2023-05-19T01:38:20.606Z,51.80
2023-05-19T01:40:50.860Z,52.10
2023-05-19T01:43:26.097Z,52.00
2023-05-19T01:45:53.492Z,52.30
2023-05-19T01:48:24.728Z,52.20
2023-05-19T01:50:56.333Z,52.20
2023-05-19T01:53:24.261Z,52.30
2023-05-19T01:55:56.674Z,52.30
2023-05-19T01:58:37.824Z,52.30
2023-05-19T02:01:22.741Z,52.30
2023-05-19T02:04:21.429Z,52.30
2023-05-19T02:07:06.111Z,53.20
2023-05-19T02:09:55.419Z,52.10
2023-05-19T02:12:39.063Z,52.60
2023-05-19T02:15:22.371Z,52.70
2023-05-19T02:17:55.744Z,53.20
2023-05-19T02:20:22.596Z,52.70
2023-05-19T02:22:52.565Z,52.80
2023-05-19T02:25:25.005Z,53.60
2023-05-19T02:27:57.257Z,53.20
2023-05-19T02:30:26.267Z,53.10
2023-05-19T02:32:55.315Z,53.20
2023-05-19T02:35:22.213Z,52.40
2023-05-19T02:37:53.008Z,53.30
2023-05-19T02:40:22.190Z,53.80
2023-05-19T02:42:54.015Z,53.30
2023-05-19T02:45:22.552Z,53.10
2023-05-19T02:47:58.117Z,53.10
2023-05-19T02:50:25.324Z,53.20
2023-05-19T02:52:55.124Z,53.10
2023-05-19T02:55:29.378Z,53.20
2023-05-19T02:58:00.985Z,53.20
2023-05-19T03:00:28.856Z,53.30
2023-05-19T03:02:57.685Z,53.30
2023-05-19T03:05:25.731Z,53.30
2023-05-19T03:07:54.785Z,53.40
2023-05-19T03:10:23.648Z,53.30
2023-05-19T03:12:50.711Z,53.40
2023-05-19T03:15:18.624Z,53.50
2023-05-19T03:17:47.931Z,53.50
2023-05-19T03:20:16.941Z,53.60
2023-05-19T03:22:45.957Z,53.60
2023-05-19T03:25:13.171Z,53.60
2023-05-19T03:27:40.524Z,53.70
2023-05-19T03:30:07.939Z,53.70
2023-05-19T03:32:45.419Z,53.80
2023-05-19T03:35:14.359Z,53.70
2023-05-19T03:37:43.874Z,53.70
2023-05-19T03:40:11.912Z,53.60
2023-05-19T03:42:44.035Z,53.70
2023-05-19T03:45:10.977Z,53.80
2023-05-19T03:47:43.325Z,54.00
2023-05-19T03:50:26.837Z,54.10
2023-05-19T03:53:00.700Z,54.10
2023-05-19T03:55:30.030Z,54.10
2023-05-19T03:57:58.234Z,54.20
2023-05-19T04:00:25.258Z,54.40
2023-05-19T04:02:55.398Z,54.40
2023-05-19T04:05:24.372Z,54.50
2023-05-19T04:07:50.991Z,54.60
2023-05-19T04:10:18.656Z,54.60
2023-05-19T04:12:47.821Z,54.80
2023-05-19T04:15:15.861Z,54.90
2023-05-19T04:17:44.354Z,55.00
2023-05-19T04:20:11.941Z,55.00
2023-05-19T04:22:38.525Z,55.10
2023-05-19T04:25:07.028Z,55.20
2023-05-19T04:27:36.489Z,55.30
2023-05-19T04:30:06.569Z,55.40
2023-05-19T04:32:33.493Z,55.50
2023-05-19T04:35:00.325Z,55.70
2023-05-19T04:37:29.790Z,55.90
2023-05-19T04:40:00.001Z,56.10
2023-05-19T04:42:30.562Z,56.20
2023-05-19T04:45:01.872Z,56.30
2023-05-19T04:47:36.607Z,56.40
2023-05-19T04:50:07.148Z,56.50
2023-05-19T04:52:36.174Z,56.60
2023-05-19T04:55:09.383Z,56.80
2023-05-19T04:57:37.467Z,57.00
2023-05-19T05:00:14.242Z,57.10
2023-05-19T05:02:58.293Z,57.70
2023-05-19T05:05:27.210Z,57.50
2023-05-19T05:07:53.983Z,57.90
2023-05-19T05:10:24.249Z,58.10
2023-05-19T05:12:55.040Z,58.20
2023-05-19T05:15:22.357Z,58.50
2023-05-19T05:17:50.745Z,58.60
2023-05-19T05:20:20.826Z,58.50
2023-05-19T05:22:47.804Z,58.70
2023-05-19T05:25:16.226Z,58.90
2023-05-19T05:27:43.189Z,59.10
2023-05-19T05:30:11.908Z,59.00
2023-05-19T05:32:38.826Z,59.20
2023-05-19T05:35:15.432Z,58.90
2023-05-19T05:37:42.590Z,58.70
2023-05-19T05:40:10.111Z,58.70
2023-05-19T05:42:36.890Z,58.90
2023-05-19T05:45:06.327Z,59.00
2023-05-19T05:47:41.494Z,59.30
2023-05-19T05:50:14.599Z,58.80
2023-05-19T05:52:42.035Z,58.80
2023-05-19T05:55:11.223Z,58.40
2023-05-19T05:57:41.968Z,57.50
2023-05-19T06:00:15.198Z,57.70
2023-05-19T06:02:56.262Z,57.70
2023-05-19T06:05:30.012Z,57.80
2023-05-19T06:07:57.494Z,57.70
2023-05-19T06:10:26.493Z,57.60
2023-05-19T06:12:54.999Z,57.40
2023-05-19T06:15:22.753Z,57.40
2023-05-19T06:17:56.750Z,57.30
2023-05-19T06:20:26.192Z,57.30
2023-05-19T06:22:55.009Z,57.20
2023-05-19T06:25:25.689Z,57.10
2023-05-19T06:27:52.827Z,57.00
2023-05-19T06:30:22.975Z,57.00
2023-05-19T06:32:59.123Z,56.90
2023-05-19T06:35:28.994Z,56.80
2023-05-19T06:37:56.190Z,56.80
2023-05-19T06:40:23.754Z,56.60
2023-05-19T06:42:53.207Z,56.60
2023-05-19T06:45:28.218Z,56.40
2023-05-19T06:47:58.220Z,56.20
2023-05-19T06:50:26.303Z,56.10
2023-05-19T06:52:54.254Z,56.20
2023-05-19T06:55:21.025Z,56.20
2023-05-19T06:57:49.328Z,56.10
2023-05-19T07:00:20.468Z,55.80
2023-05-19T07:02:50.649Z,55.80
2023-05-19T07:05:17.517Z,55.90
2023-05-19T07:07:48.989Z,55.60
2023-05-19T07:10:21.300Z,55.50
2023-05-19T07:12:48.671Z,55.60
2023-05-19T07:15:17.526Z,55.60
2023-05-19T07:17:44.343Z,55.20
2023-05-19T07:20:11.562Z,55.30
2023-05-19T07:22:41.076Z,55.30
2023-05-19T07:25:08.409Z,55.10
2023-05-19T07:27:35.127Z,55.20
2023-05-19T07:30:01.690Z,55.00
2023-05-19T07:32:28.333Z,54.90
2023-05-19T07:34:55.004Z,55.50
2023-05-19T07:37:21.731Z,55.00
2023-05-19T07:39:48.498Z,54.80
2023-05-19T07:42:15.266Z,54.90
2023-05-19T07:44:41.946Z,54.80
2023-05-19T07:47:08.575Z,54.30
2023-05-19T07:49:35.318Z,54.40
2023-05-19T07:52:01.983Z,54.30
2023-05-19T07:54:28.679Z,54.10
2023-05-19T07:56:55.259Z,54.30
2023-05-19T07:59:21.890Z,53.90
2023-05-19T08:01:48.927Z,53.60
2023-05-19T08:04:15.825Z,53.70
2023-05-19T08:06:44.190Z,53.70
2023-05-19T08:09:11.829Z,53.40
2023-05-19T08:11:38.462Z,53.40
2023-05-19T08:14:05.460Z,53.10
2023-05-19T08:16:32.156Z,53.00
2023-05-19T08:19:02.254Z,53.20
2023-05-19T08:21:28.928Z,53.30
2023-05-19T08:23:56.968Z,52.60
2023-05-19T08:26:23.960Z,52.50
2023-05-19T08:28:50.541Z,52.10
2023-05-19T08:31:18.329Z,51.90
2023-05-19T08:33:45.556Z,51.90
2023-05-19T08:36:12.283Z,51.70
2023-05-19T08:38:38.977Z,51.10
2023-05-19T08:41:05.832Z,51.00
2023-05-19T08:43:32.534Z,50.30
2023-05-19T08:46:00.585Z,50.70
2023-05-19T08:48:30.910Z,51.50
2023-05-19T08:51:12.272Z,51.20
2023-05-19T08:53:43.854Z,51.30
2023-05-19T08:56:21.917Z,50.80
2023-05-19T08:58:51.229Z,50.70
2023-05-19T09:01:19.909Z,50.00
2023-05-19T09:03:49.491Z,50.20
2023-05-19T09:06:16.287Z,49.30
2023-05-19T09:08:43.952Z,48.20
2023-05-19T09:11:10.862Z,48.30
2023-05-19T09:13:37.636Z,48.20
2023-05-19T09:16:04.609Z,47.80
2023-05-19T09:18:31.342Z,46.90
2023-05-19T09:21:00.452Z,46.60
2023-05-19T09:23:29.507Z,45.50
2023-05-19T09:25:57.193Z,44.80
2023-05-19T09:28:27.696Z,44.70
2023-05-19T09:31:11.072Z,44.50
2023-05-19T09:33:39.418Z,44.40
2023-05-19T09:36:08.294Z,44.00
2023-05-19T09:38:36.259Z,44.20
2023-05-19T09:41:03.734Z,43.30
2023-05-19T09:43:32.713Z,42.80
2023-05-19T09:46:07.890Z,43.20
2023-05-19T09:48:36.189Z,43.20
2023-05-19T09:51:05.038Z,43.20
2023-05-19T09:53:32.350Z,42.50
2023-05-19T09:56:01.520Z,42.60
2023-05-19T09:58:36.153Z,42.70
2023-05-19T10:01:04.217Z,42.50
2023-05-19T10:03:37.622Z,42.80
2023-05-19T10:06:14.285Z,42.20
2023-05-19T10:08:42.144Z,42.90
2023-05-19T10:11:13.820Z,42.50
2023-05-19T10:13:44.855Z,42.30
2023-05-19T10:16:13.437Z,41.90
2023-05-19T10:18:41.152Z,41.60
2023-05-19T10:21:08.958Z,41.60
2023-05-19T10:23:37.645Z,42.00
2023-05-19T10:26:12.662Z,41.90
2023-05-19T10:28:45.484Z,42.10
2023-05-19T10:31:17.709Z,42.30
2023-05-19T10:34:18.904Z,41.20
2023-05-19T10:36:49.493Z,41.30
2023-05-19T10:39:27.986Z,41.20
2023-05-19T10:42:36.568Z,40.40
2023-05-19T10:45:21.700Z,41.30
2023-05-19T10:47:56.476Z,40.10
2023-05-19T10:50:23.190Z,40.50
2023-05-19T10:53:00.637Z,41.40
2023-05-19T10:55:53.525Z,40.60
2023-05-19T10:58:44.842Z,40.80
2023-05-19T11:01:33.153Z,40.50
2023-05-19T11:04:15.523Z,40.20
2023-05-19T11:06:51.473Z,40.50
2023-05-19T11:09:22.579Z,40.30
2023-05-19T11:11:55.502Z,41.00
2023-05-19T11:14:26.413Z,40.20
2023-05-19T11:16:56.965Z,39.50
2023-05-19T11:19:35.231Z,39.30
2023-05-19T11:22:12.758Z,39.70
2023-05-19T11:24:49.848Z,40.70
2023-05-19T11:27:33.357Z,40.50
2023-05-19T11:30:09.453Z,40.50
2023-05-19T11:32:39.519Z,40.60
2023-05-19T11:35:07.887Z,41.30
2023-05-19T11:37:37.257Z,40.70
2023-05-19T11:40:08.189Z,40.30
2023-05-19T11:42:36.808Z,39.60
2023-05-19T11:45:04.661Z,39.20
2023-05-19T11:47:42.598Z,40.40
2023-05-19T11:50:20.026Z,39.50
2023-05-19T11:52:49.599Z,39.30
2023-05-19T11:55:22.937Z,39.20
2023-05-19T11:58:03.981Z,39.40
2023-05-19T12:00:39.235Z,38.70
2023-05-19T12:03:07.275Z,39.10
2023-05-19T12:05:40.867Z,39.30
2023-05-19T12:08:08.636Z,38.00
2023-05-19T12:10:35.756Z,38.80
2023-05-19T12:13:03.339Z,38.40
2023-05-19T12:15:33.784Z,37.90
2023-05-19T12:18:01.949Z,37.80
2023-05-19T12:20:35.388Z,37.50
2023-05-19T12:23:02.904Z,38.20
2023-05-19T12:25:30.248Z,38.00
2023-05-19T12:28:02.686Z,38.20
2023-05-19T12:30:30.789Z,37.00
2023-05-19T12:32:58.022Z,37.60
2023-05-19T12:35:29.555Z,37.60
2023-05-19T12:37:57.534Z,36.90
2023-05-19T12:40:24.216Z,36.80
2023-05-19T12:42:58.632Z,37.50
2023-05-19T12:45:27.732Z,37.70
2023-05-19T12:47:54.769Z,36.70
2023-05-19T12:50:21.445Z,36.80
2023-05-19T12:52:53.018Z,36.70
2023-05-19T12:55:20.894Z,36.80
2023-05-19T12:57:57.288Z,36.10
2023-05-19T13:00:27.869Z,36.90
2023-05-19T13:03:09.773Z,36.40
2023-05-19T13:05:38.755Z,35.50
2023-05-19T13:08:13.706Z,36.20
2023-05-19T13:10:42.860Z,35.60
2023-05-19T13:13:10.276Z,35.10
2023-05-19T13:15:45.092Z,34.30
2023-05-19T13:18:13.398Z,34.60
2023-05-19T13:20:41.675Z,35.20
2023-05-19T13:23:10.418Z,34.20
2023-05-19T13:25:37.199Z,34.50
2023-05-19T13:28:05.682Z,35.00
2023-05-19T13:30:34.391Z,34.40
2023-05-19T13:33:01.720Z,34.20
2023-05-19T13:35:28.819Z,34.90
2023-05-19T13:37:55.579Z,34.70
2023-05-19T13:40:23.858Z,33.40
2023-05-19T13:42:50.527Z,32.80
2023-05-19T13:45:18.095Z,32.30
2023-05-19T13:47:44.815Z,31.90
2023-05-19T13:50:12.100Z,31.10
2023-05-19T13:52:41.261Z,29.60
2023-05-19T13:55:08.477Z,28.70
2023-05-19T13:57:35.624Z,27.90
2023-05-19T14:00:04.018Z,27.30
2023-05-19T14:02:40.517Z,26.90
2023-05-19T14:05:07.940Z,26.40
2023-05-19T14:07:35.018Z,26.00
2023-05-19T14:10:03.894Z,25.80
2023-05-19T14:12:41.307Z,25.20
2023-05-19T14:15:17.516Z,25.20
2023-05-19T14:17:44.271Z,24.80
2023-05-19T14:20:11.423Z,24.30
2023-05-19T14:22:40.964Z,24.00
2023-05-19T14:25:08.050Z,23.90
2023-05-19T14:27:34.677Z,23.80
2023-05-19T14:30:01.338Z,23.70
2023-05-19T14:32:30.219Z,23.70
2023-05-19T14:34:57.247Z,23.60
2023-05-19T14:37:26.323Z,23.10
2023-05-19T14:39:52.945Z,23.70
2023-05-19T14:42:19.560Z,23.80
2023-05-19T14:44:46.276Z,23.20
2023-05-19T14:47:13.006Z,23.30
2023-05-19T14:49:40.099Z,23.10
2023-05-19T14:52:06.955Z,23.20
2023-05-19T14:54:33.925Z,23.00
2023-05-19T14:57:01.457Z,22.40
2023-05-19T14:59:29.373Z,22.00
2023-05-19T15:01:56.028Z,21.80
2023-05-19T15:04:22.789Z,21.60
2023-05-19T15:06:58.207Z,21.30
2023-05-19T15:09:36.001Z,21.30
2023-05-19T15:12:02.689Z,21.50
2023-05-19T15:14:30.830Z,21.00
2023-05-19T15:16:59.021Z,21.20
2023-05-19T15:19:26.399Z,21.10
2023-05-19T15:21:53.393Z,21.10
2023-05-19T15:24:22.884Z,21.00
2023-05-19T15:26:49.606Z,20.70
2023-05-19T15:29:16.257Z,20.80
2023-05-19T15:31:43.026Z,20.60
2023-05-19T15:34:09.811Z,20.20
2023-05-19T15:36:36.446Z,20.40
2023-05-19T15:39:03.638Z,20.30
2023-05-19T15:41:30.427Z,20.10
2023-05-19T15:44:00.570Z,20.30
2023-05-19T15:46:27.921Z,20.20
2023-05-19T15:48:54.763Z,20.30
2023-05-19T15:51:21.612Z,20.50
2023-05-19T15:53:48.563Z,20.50
2023-05-19T15:56:15.380Z,20.70
2023-05-19T15:58:42.059Z,20.70
2023-05-19T16:01:09.068Z,20.50
2023-05-19T16:03:35.715Z,20.50
2023-05-19T16:06:02.514Z,20.30
2023-05-19T16:08:29.384Z,19.90
2023-05-19T16:10:56.217Z,20.00
2023-05-19T16:13:22.862Z,19.90
2023-05-19T16:15:51.508Z,19.80
2023-05-19T16:18:18.537Z,19.70
2023-05-19T16:20:45.237Z,19.60
2023-05-19T16:23:11.932Z,19.60
2023-05-19T16:25:38.622Z,19.70
2023-05-19T16:28:05.913Z,19.90
2023-05-19T16:30:32.966Z,20.10
2023-05-19T16:32:59.883Z,20.10
2023-05-19T16:35:29.236Z,20.20
2023-05-19T16:37:59.686Z,20.00
2023-05-19T16:40:28.167Z,20.00
2023-05-19T16:42:56.147Z,19.90
2023-05-19T16:45:22.778Z,19.90
2023-05-19T16:47:49.446Z,20.00
2023-05-19T16:50:16.194Z,20.00
2023-05-19T16:52:43.144Z,19.90
2023-05-19T16:55:10.766Z,19.90
2023-05-19T16:57:37.405Z,19.70
2023-05-19T17:00:04.469Z,19.70
2023-05-19T17:02:31.438Z,19.80
2023-05-19T17:04:58.265Z,20.00
2023-05-19T17:07:24.945Z,20.00
2023-05-19T17:09:53.529Z,20.10
2023-05-19T17:12:21.844Z,20.20
2023-05-19T17:14:50.216Z,20.30
2023-05-19T17:17:16.938Z,20.20
2023-05-19T17:19:46.699Z,20.10
2023-05-19T17:22:13.322Z,20.10
2023-05-19T17:24:39.930Z,20.40
2023-05-19T17:27:06.685Z,20.10
2023-05-19T17:29:33.421Z,20.10
2023-05-19T17:32:00.270Z,20.30
2023-05-19T17:34:27.985Z,20.50
2023-05-19T17:36:54.622Z,20.40
2023-05-19T17:39:21.262Z,20.40
2023-05-19T17:41:47.879Z,20.30
2023-05-19T17:44:14.939Z,20.60
2023-05-19T17:46:41.637Z,20.40
2023-05-19T17:49:10.427Z,20.70
2023-05-19T17:51:37.481Z,20.60
2023-05-19T17:54:05.196Z,20.50
2023-05-19T17:56:34.017Z,20.60
2023-05-19T17:59:00.828Z,20.90
2023-05-19T18:01:27.738Z,20.90
2023-05-19T18:03:56.160Z,20.80
2023-05-19T18:06:32.077Z,21.00
2023-05-19T18:09:02.849Z,21.40
2023-05-19T18:11:38.259Z,21.70
2023-05-19T18:14:04.979Z,21.50
2023-05-19T18:16:34.452Z,21.40
2023-05-19T18:19:03.996Z,21.80
2023-05-19T18:21:33.841Z,22.00
2023-05-19T18:24:04.207Z,22.10
2023-05-19T18:26:33.824Z,22.10
2023-05-19T18:29:02.801Z,22.30
2023-05-19T18:31:35.066Z,22.90
2023-05-19T18:34:04.141Z,22.90
2023-05-19T18:36:35.471Z,23.10
2023-05-19T18:39:06.493Z,23.50
2023-05-19T18:41:37.500Z,24.00
2023-05-19T18:44:13.382Z,24.20
2023-05-19T18:46:50.552Z,24.50
2023-05-19T18:49:17.191Z,24.90
2023-05-19T18:51:43.808Z,25.20
2023-05-19T18:54:12.744Z,25.50
2023-05-19T18:56:39.450Z,25.90
2023-05-19T18:59:08.226Z,26.10
2023-05-19T19:01:34.975Z,26.30
2023-05-19T19:04:02.168Z,26.80
2023-05-19T19:06:31.129Z,26.80
2023-05-19T19:09:01.247Z,26.80
2023-05-19T19:11:30.223Z,27.00
2023-05-19T19:14:02.319Z,27.20
2023-05-19T19:16:29.019Z,27.20
2023-05-19T19:18:55.774Z,27.40
2023-05-19T19:21:25.698Z,27.60
2023-05-19T19:23:55.630Z,28.00
2023-05-19T19:26:31.768Z,28.10
2023-05-19T19:28:58.818Z,28.40
2023-05-19T19:31:30.045Z,28.40
2023-05-19T19:34:04.867Z,28.50
2023-05-19T19:36:31.849Z,28.70
2023-05-19T19:38:58.761Z,29.10
2023-05-19T19:41:26.616Z,29.10
2023-05-19T19:43:56.825Z,29.50
2023-05-19T19:46:27.986Z,29.50
2023-05-19T19:49:00.242Z,29.80
2023-05-19T19:51:29.628Z,30.00
2023-05-19T19:54:02.864Z,29.20
2023-05-19T19:56:32.193Z,30.10
2023-05-19T19:59:02.793Z,30.10
2023-05-19T20:01:34.182Z,30.20
2023-05-19T20:04:03.861Z,30.50
2023-05-19T20:06:32.948Z,30.50
2023-05-19T20:09:02.265Z,30.80
2023-05-19T20:11:31.736Z,31.70
2023-05-19T20:14:00.516Z,32.10
2023-05-19T20:16:27.372Z,32.20
2023-05-19T20:18:54.014Z,32.60
2023-05-19T20:21:20.678Z,32.90
2023-05-19T20:23:59.408Z,33.20
2023-05-19T20:26:29.164Z,33.60
2023-05-19T20:28:58.649Z,34.10
2023-05-19T20:31:25.734Z,34.20
2023-05-19T20:33:52.472Z,34.40
2023-05-19T20:36:20.881Z,34.60
2023-05-19T20:38:51.197Z,35.00
2023-05-19T20:41:22.225Z,35.60
2023-05-19T20:43:49.022Z,35.60
2023-05-19T20:46:18.387Z,36.10
2023-05-19T20:48:45.017Z,36.30
2023-05-19T20:51:11.667Z,36.30
2023-05-19T20:53:40.848Z,36.30
2023-05-19T20:56:10.289Z,36.40
2023-05-19T20:58:40.048Z,36.90
2023-05-19T21:01:06.743Z,36.80
2023-05-19T21:03:33.472Z,36.90
2023-05-19T21:06:00.745Z,37.10
2023-05-19T21:08:29.593Z,37.60
2023-05-19T21:10:58.545Z,37.50
2023-05-19T21:13:40.250Z,37.90
2023-05-19T21:16:18.327Z,37.40
2023-05-19T21:18:45.042Z,37.30
2023-05-19T21:21:11.756Z,37.80
2023-05-19T21:23:41.429Z,37.90
2023-05-19T21:26:08.079Z,38.70
2023-05-19T21:28:43.236Z,38.30
2023-05-19T21:31:12.495Z,39.10
2023-05-19T21:33:40.983Z,39.00
2023-05-19T21:36:09.834Z,39.00
2023-05-19T21:38:38.934Z,39.20
2023-05-19T21:41:05.652Z,39.30
2023-05-19T21:43:32.282Z,39.30
2023-05-19T21:45:58.951Z,39.50
2023-05-19T21:48:28.139Z,39.60
2023-05-19T21:51:00.144Z,40.20
2023-05-19T21:53:28.400Z,40.10
2023-05-19T21:56:00.965Z,40.00
2023-05-19T21:58:27.595Z,40.10
2023-05-19T22:00:56.551Z,40.00
2023-05-19T22:03:25.972Z,40.40
2023-05-19T22:05:54.722Z,40.60
2023-05-19T22:08:25.902Z,40.70
2023-05-19T22:10:56.186Z,41.00
2023-05-19T22:13:37.274Z,41.00
2023-05-19T22:16:08.697Z,41.60
2023-05-19T22:18:35.440Z,41.60
2023-05-19T22:21:12.995Z,41.40
2023-05-19T22:23:39.610Z,41.30
2023-05-19T22:26:08.769Z,41.60
2023-05-19T22:28:37.717Z,42.00
2023-05-19T22:31:08.282Z,42.10
2023-05-19T22:33:34.927Z,42.00
2023-05-19T22:36:03.545Z,42.10
2023-05-19T22:38:30.133Z,42.00
2023-05-19T22:40:57.311Z,42.40
2023-05-19T22:43:28.058Z,42.50
2023-05-19T22:45:54.731Z,42.70
2023-05-19T22:48:21.779Z,42.50
2023-05-19T22:50:54.851Z,42.70
2023-05-19T22:53:21.496Z,42.70
2023-05-19T22:55:48.132Z,42.70
2023-05-19T22:58:14.792Z,42.50
2023-05-19T23:00:48.690Z,43.00
2023-05-19T23:03:16.935Z,42.90
2023-05-19T23:05:48.224Z,42.90
2023-05-19T23:08:14.896Z,43.30
2023-05-19T23:10:42.248Z,42.60
2023-05-19T23:13:12.568Z,43.20
2023-05-19T23:15:44.003Z,43.30
2023-05-19T23:18:11.453Z,43.60
2023-05-19T23:20:40.515Z,43.70
2023-05-19T23:23:07.116Z,43.90
2023-05-19T23:25:33.994Z,44.00
2023-05-19T23:28:10.757Z,43.90
2023-05-19T23:30:43.655Z,44.20
2023-05-19T23:33:13.461Z,44.20
2023-05-19T23:35:40.170Z,44.80
2023-05-19T23:38:06.771Z,44.60
2023-05-19T23:40:33.364Z,44.60
2023-05-19T23:43:03.424Z,44.80
2023-05-19T23:45:30.093Z,44.90
2023-05-19T23:47:58.232Z,45.00
2023-05-19T23:50:33.207Z,45.00
2023-05-19T23:53:00.586Z,45.30
2023-05-19T23:55:30.230Z,45.20
2023-05-19T23:58:02.336Z,45.20
